Terminal Aerodrome Forecast
Issued by NWS

Home | Current Version | Previous Version | Text Only | Print | Product List | Glossary On
Versions: 1 2 3 4 5 6 7 8 9 10 11 12 13 14 15
153
FTUS46 KMTR 091720
TAFSJC
TAF
KSJC 091720Z 0918/1018 12008KT P6SM VCSH SCT030 BKN040 OVC100
     FM092000 13009KT P6SM VCSH SCT018 BKN025 OVC040
     FM100600 13012KT P6SM -SHRA SCT015 BKN020 OVC035
     FM100900 12014G21KT P6SM -RA BKN015 OVC020
      TEMPO 1012/1016 2SM RA BR OVC015=

USA.gov is the U.S. government's official web portal to all federal, state and local government web resources and services.